sensor_id;sensor_type;location;lat;lon;timestamp;pressure;altitude;pressure_sealevel;temperature;humidity
47763;BME280;33526;42.690;23.322;2023-03-01T00:32:55;95429.38;;;5.19;93.18
47763;BME280;33526;42.690;23.322;2023-03-01T00:35:21;95425.53;;;5.32;92.89
47763;BME280;33526;42.690;23.322;2023-03-01T00:37:48;95523.44;;;5.93;92.15
47763;BME280;33526;42.690;23.322;2023-03-01T00:40:18;95393.56;;;5.08;92.27
47763;BME280;33526;42.690;23.322;2023-03-01T00:42:44;95373.69;;;5.09;92.12
47763;BME280;33526;42.690;23.322;2023-03-01T00:45:12;95406.03;;;5.16;92.21
47763;BME280;33526;42.690;23.322;2023-03-01T00:47:38;95401.25;;;4.96;92.97
47763;BME280;33526;42.690;23.322;2023-03-01T00:50:04;95350.00;;;4.65;92.63
47763;BME280;33526;42.690;23.322;2023-03-01T00:52:30;95422.81;;;5.09;92.97
47763;BME280;33526;42.690;23.322;2023-03-01T00:54:56;95418.44;;;5.11;92.67
47763;BME280;33526;42.690;23.322;2023-03-01T00:57:23;95413.78;;;5.05;92.77
47763;BME280;33526;42.690;23.322;2023-03-01T00:59:49;95505.91;;;5.76;92.98
47763;BME280;33526;42.690;23.322;2023-03-01T01:02:18;95512.63;;;5.79;92.44
47763;BME280;33526;42.690;23.322;2023-03-01T01:04:45;95405.84;;;5.07;92.08
47763;BME280;33526;42.690;23.322;2023-03-01T01:07:11;95455.16;;;5.15;93.05
47763;BME280;33526;42.690;23.322;2023-03-01T01:09:37;95496.31;;;5.61;93.71
47763;BME280;33526;42.690;23.322;2023-03-01T01:12:03;95442.66;;;5.27;93.21
47763;BME280;33526;42.690;23.322;2023-03-01T01:14:29;95375.69;;;4.89;92.35
47763;BME280;33526;42.690;23.322;2023-03-01T01:16:55;95450.91;;;5.51;91.97
47763;BME280;33526;42.690;23.322;2023-03-01T01:19:21;95456.72;;;5.60;91.90
47763;BME280;33526;42.690;23.322;2023-03-01T01:21:47;95426.16;;;5.20;92.14
47763;BME280;33526;42.690;23.322;2023-03-01T01:24:13;95436.63;;;5.32;92.32
47763;BME280;33526;42.690;23.322;2023-03-01T01:26:39;95410.19;;;5.08;92.41
47763;BME280;33526;42.690;23.322;2023-03-01T01:29:05;95447.00;;;5.28;91.46
47763;BME280;33526;42.690;23.322;2023-03-01T01:31:33;95386.94;;;4.78;92.32
47763;BME280;33526;42.690;23.322;2023-03-01T01:34:00;95483.72;;;5.56;92.09
47763;BME280;33526;42.690;23.322;2023-03-01T01:36:27;95417.47;;;4.98;91.38
47763;BME280;33526;42.690;23.322;2023-03-01T01:38:54;95350.63;;;4.52;91.15
47763;BME280;33526;42.690;23.322;2023-03-01T01:41:22;95511.38;;;5.60;91.29
47763;BME280;33526;42.690;23.322;2023-03-01T01:46:45;95441.59;;;5.21;89.45
47763;BME280;33526;42.690;23.322;2023-03-01T01:49:36;95522.94;;;5.78;89.79
47763;BME280;33526;42.690;23.322;2023-03-01T01:52:12;95501.03;;;5.64;89.31
47763;BME280;33526;42.690;23.322;2023-03-01T01:57:11;95481.28;;;5.58;88.35
47763;BME280;33526;42.690;23.322;2023-03-01T01:59:38;95462.00;;;5.51;87.81
47763;BME280;33526;42.690;23.322;2023-03-01T02:02:06;95419.91;;;5.16;87.42
47763;BME280;33526;42.690;23.322;2023-03-01T02:04:32;95460.38;;;5.33;87.76
47763;BME280;33526;42.690;23.322;2023-03-01T02:07:02;95487.50;;;5.66;87.64
47763;BME280;33526;42.690;23.322;2023-03-01T02:09:30;95442.88;;;5.36;86.97
47763;BME280;33526;42.690;23.322;2023-03-01T02:11:57;95464.84;;;5.47;87.43
47763;BME280;33526;42.690;23.322;2023-03-01T02:14:22;95446.38;;;5.41;87.49
47763;BME280;33526;42.690;23.322;2023-03-01T02:16:48;95411.66;;;5.12;87.28
47763;BME280;33526;42.690;23.322;2023-03-01T02:22:25;95488.50;;;5.55;87.92
47763;BME280;33526;42.690;23.322;2023-03-01T02:27:36;95421.50;;;5.37;86.72
47763;BME280;33526;42.690;23.322;2023-03-01T02:30:04;95472.34;;;5.70;86.23
47763;BME280;33526;42.690;23.322;2023-03-01T02:32:29;95409.25;;;5.34;85.54
47763;BME280;33526;42.690;23.322;2023-03-01T02:34:56;95484.72;;;5.86;85.76
47763;BME280;33526;42.690;23.322;2023-03-01T02:37:22;95454.28;;;5.62;85.60
47763;BME280;33526;42.690;23.322;2023-03-01T02:39:59;95435.16;;;5.48;85.35
47763;BME280;33526;42.690;23.322;2023-03-01T02:42:32;95479.59;;;5.64;86.43
47763;BME280;33526;42.690;23.322;2023-03-01T02:45:00;95447.44;;;5.47;86.50
47763;BME280;33526;42.690;23.322;2023-03-01T02:47:25;95438.91;;;5.38;87.36
47763;BME280;33526;42.690;23.322;2023-03-01T02:49:51;95435.66;;;5.43;87.04
47763;BME280;33526;42.690;23.322;2023-03-01T02:52:43;95494.75;;;5.80;87.67
47763;BME280;33526;42.690;23.322;2023-03-01T02:55:14;95487.16;;;5.84;87.26
47763;BME280;33526;42.690;23.322;2023-03-01T02:57:43;95429.97;;;5.50;86.82
47763;BME280;33526;42.690;23.322;2023-03-01T03:00:11;95469.13;;;5.72;86.79
47763;BME280;33526;42.690;23.322;2023-03-01T03:02:46;95426.38;;;5.29;87.32
47763;BME280;33526;42.690;23.322;2023-03-01T03:05:17;95500.75;;;5.78;88.12
47763;BME280;33526;42.690;23.322;2023-03-01T03:07:44;95437.06;;;5.51;87.33
47763;BME280;33526;42.690;23.322;2023-03-01T03:10:19;95491.19;;;5.79;87.70
47763;BME280;33526;42.690;23.322;2023-03-01T03:12:49;95496.53;;;5.90;87.96
47763;BME280;33526;42.690;23.322;2023-03-01T03:15:14;95502.75;;;5.98;87.27
47763;BME280;33526;42.690;23.322;2023-03-01T03:17:41;95420.41;;;5.51;86.69
47763;BME280;33526;42.690;23.322;2023-03-01T03:20:10;95424.56;;;5.43;86.69
47763;BME280;33526;42.690;23.322;2023-03-01T03:22:39;95413.38;;;5.06;88.04
47763;BME280;33526;42.690;23.322;2023-03-01T03:25:08;95443.09;;;5.26;88.34
47763;BME280;33526;42.690;23.322;2023-03-01T03:27:38;95509.41;;;5.60;88.17
47763;BME280;33526;42.690;23.322;2023-03-01T03:30:05;95479.88;;;5.50;88.64
47763;BME280;33526;42.690;23.322;2023-03-01T03:32:38;95500.81;;;5.74;88.13
47763;BME280;33526;42.690;23.322;2023-03-01T03:35:06;95499.31;;;5.70;87.95
47763;BME280;33526;42.690;23.322;2023-03-01T03:37:40;95498.31;;;5.80;87.41
47763;BME280;33526;42.690;23.322;2023-03-01T03:40:27;95498.75;;;5.79;87.22
47763;BME280;33526;42.690;23.322;2023-03-01T03:45:57;95513.66;;;5.65;87.95
47763;BME280;33526;42.690;23.322;2023-03-01T03:48:23;95494.94;;;5.49;88.63
47763;BME280;33526;42.690;23.322;2023-03-01T03:50:51;95437.03;;;5.11;88.37
47763;BME280;33526;42.690;23.322;2023-03-01T03:53:18;95512.53;;;5.62;88.54
47763;BME280;33526;42.690;23.322;2023-03-01T03:55:44;95453.31;;;5.09;89.12
47763;BME280;33526;42.690;23.322;2023-03-01T03:58:10;95458.16;;;5.25;89.20
47763;BME280;33526;42.690;23.322;2023-03-01T04:00:43;95507.84;;;5.59;88.61
47763;BME280;33526;42.690;23.322;2023-03-01T04:03:10;95452.09;;;5.10;88.73
47763;BME280;33526;42.690;23.322;2023-03-01T04:05:37;95490.47;;;5.35;89.43
47763;BME280;33526;42.690;23.322;2023-03-01T04:08:02;95513.28;;;5.43;89.75
47763;BME280;33526;42.690;23.322;2023-03-01T04:10:40;95514.13;;;5.40;90.01
47763;BME280;33526;42.690;23.322;2023-03-01T04:13:07;95497.34;;;5.27;89.91
47763;BME280;33526;42.690;23.322;2023-03-01T04:15:35;95470.53;;;4.96;90.22
47763;BME280;33526;42.690;23.322;2023-03-01T04:18:01;95483.78;;;5.09;89.69
47763;BME280;33526;42.690;23.322;2023-03-01T04:20:29;95468.25;;;4.91;89.94
47763;BME280;33526;42.690;23.322;2023-03-01T04:23:07;95520.81;;;5.22;90.18
47763;BME280;33526;42.690;23.322;2023-03-01T04:25:54;95419.06;;;4.75;90.12
47763;BME280;33526;42.690;23.322;2023-03-01T04:28:29;95487.78;;;5.08;90.42
47763;BME280;33526;42.690;23.322;2023-03-01T04:30:57;95437.28;;;4.49;91.54
47763;BME280;33526;42.690;23.322;2023-03-01T04:33:51;95506.16;;;4.98;92.70
47763;BME280;33526;42.690;23.322;2023-03-01T04:36:17;95438.63;;;4.65;91.67
47763;BME280;33526;42.690;23.322;2023-03-01T04:38:43;95444.19;;;4.65;91.83
47763;BME280;33526;42.690;23.322;2023-03-01T04:41:13;95437.41;;;4.66;91.57
47763;BME280;33526;42.690;23.322;2023-03-01T04:43:39;95509.34;;;5.20;91.86
47763;BME280;33526;42.690;23.322;2023-03-01T04:46:11;95494.53;;;5.07;91.85
47763;BME280;33526;42.690;23.322;2023-03-01T04:48:38;95505.94;;;5.32;91.26
47763;BME280;33526;42.690;23.322;2023-03-01T04:51:04;95512.72;;;5.31;90.55
47763;BME280;33526;42.690;23.322;2023-03-01T04:53:31;95508.97;;;5.18;91.05
47763;BME280;33526;42.690;23.322;2023-03-01T04:55:58;95503.88;;;5.36;91.63
47763;BME280;33526;42.690;23.322;2023-03-01T04:58:27;95486.72;;;5.22;90.75
47763;BME280;33526;42.690;23.322;2023-03-01T05:00:54;95451.38;;;5.06;90.24
47763;BME280;33526;42.690;23.322;2023-03-01T05:03:20;95432.84;;;4.79;90.50
47763;BME280;33526;42.690;23.322;2023-03-01T05:05:48;95424.28;;;4.70;91.65
47763;BME280;33526;42.690;23.322;2023-03-01T05:08:15;95501.34;;;5.26;91.68
47763;BME280;33526;42.690;23.322;2023-03-01T05:10:46;95499.59;;;5.12;91.72
47763;BME280;33526;42.690;23.322;2023-03-01T05:13:13;95510.56;;;5.19;91.72
47763;BME280;33526;42.690;23.322;2023-03-01T05:15:58;95509.22;;;5.27;91.83
47763;BME280;33526;42.690;23.322;2023-03-01T05:18:25;95466.09;;;5.03;91.42
47763;BME280;33526;42.690;23.322;2023-03-01T05:20:55;95444.41;;;4.97;91.41
47763;BME280;33526;42.690;23.322;2023-03-01T05:23:24;95489.78;;;5.27;90.73
47763;BME280;33526;42.690;23.322;2023-03-01T05:25:49;95458.50;;;5.07;90.53
47763;BME280;33526;42.690;23.322;2023-03-01T05:28:18;95454.78;;;4.93;90.38
47763;BME280;33526;42.690;23.322;2023-03-01T05:30:45;95517.47;;;5.31;90.97
47763;BME280;33526;42.690;23.322;2023-03-01T05:33:11;95447.47;;;5.03;90.93
47763;BME280;33526;42.690;23.322;2023-03-01T05:35:43;95510.81;;;5.48;90.29
47763;BME280;33526;42.690;23.322;2023-03-01T05:38:10;95509.16;;;5.51;89.87
47763;BME280;33526;42.690;23.322;2023-03-01T05:40:40;95440.66;;;5.08;89.62
47763;BME280;33526;42.690;23.322;2023-03-01T05:43:06;95485.13;;;5.24;90.44
47763;BME280;33526;42.690;23.322;2023-03-01T05:45:32;95510.09;;;5.44;90.03
47763;BME280;33526;42.690;23.322;2023-03-01T05:47:58;95522.94;;;5.34;90.78
47763;BME280;33526;42.690;23.322;2023-03-01T05:50:27;95500.31;;;5.16;91.08
47763;BME280;33526;42.690;23.322;2023-03-01T05:53:04;95494.94;;;5.05;90.93
47763;BME280;33526;42.690;23.322;2023-03-01T05:55:34;95528.56;;;5.31;91.15
47763;BME280;33526;42.690;23.322;2023-03-01T05:58:02;95460.50;;;4.83;91.48
47763;BME280;33526;42.690;23.322;2023-03-01T06:00:29;95519.22;;;5.21;91.48
47763;BME280;33526;42.690;23.322;2023-03-01T06:02:56;95537.66;;;5.31;91.25
47763;BME280;33526;42.690;23.322;2023-03-01T06:05:22;95533.78;;;5.49;90.98
47763;BME280;33526;42.690;23.322;2023-03-01T06:07:48;95486.56;;;5.09;89.70
47763;BME280;33526;42.690;23.322;2023-03-01T06:10:14;95504.28;;;5.15;89.84
47763;BME280;33526;42.690;23.322;2023-03-01T06:12:41;95548.81;;;5.51;89.41
47763;BME280;33526;42.690;23.322;2023-03-01T06:15:08;95497.63;;;5.32;89.57
47763;BME280;33526;42.690;23.322;2023-03-01T06:17:35;95555.72;;;5.63;89.23
47763;BME280;33526;42.690;23.322;2023-03-01T06:20:13;95534.03;;;5.34;88.77
47763;BME280;33526;42.690;23.322;2023-03-01T06:22:38;95562.91;;;5.37;89.79
47763;BME280;33526;42.690;23.322;2023-03-01T06:25:05;95561.69;;;5.38;89.93
47763;BME280;33526;42.690;23.322;2023-03-01T06:27:31;95501.63;;;4.84;90.79
47763;BME280;33526;42.690;23.322;2023-03-01T06:29:56;95495.97;;;4.91;91.05
47763;BME280;33526;42.690;23.322;2023-03-01T06:32:22;95524.84;;;5.17;90.97
47763;BME280;33526;42.690;23.322;2023-03-01T06:34:47;95529.91;;;5.23;90.45
47763;BME280;33526;42.690;23.322;2023-03-01T06:37:13;95550.28;;;5.56;90.34
47763;BME280;33526;42.690;23.322;2023-03-01T06:39:38;95510.16;;;5.41;89.68
47763;BME280;33526;42.690;23.322;2023-03-01T06:42:04;95559.94;;;5.91;88.15
47763;BME280;33526;42.690;23.322;2023-03-01T06:44:31;95522.03;;;5.41;87.36
47763;BME280;33526;42.690;23.322;2023-03-01T06:46:56;95522.41;;;5.43;88.01
47763;BME280;33526;42.690;23.322;2023-03-01T06:49:22;95542.31;;;5.58;87.67
47763;BME280;33526;42.690;23.322;2023-03-01T06:51:47;95520.66;;;5.29;87.64
47763;BME280;33526;42.690;23.322;2023-03-01T06:54:12;95545.84;;;5.62;87.81
47763;BME280;33526;42.690;23.322;2023-03-01T06:56:38;95520.31;;;5.47;87.50
47763;BME280;33526;42.690;23.322;2023-03-01T06:59:04;95547.31;;;5.87;87.52
47763;BME280;33526;42.690;23.322;2023-03-01T07:01:30;95489.41;;;5.49;87.00
47763;BME280;33526;42.690;23.322;2023-03-01T07:03:56;95531.56;;;5.84;86.43
47763;BME280;33526;42.690;23.322;2023-03-01T07:06:22;95500.34;;;5.56;85.27
47763;BME280;33526;42.690;23.322;2023-03-01T07:08:48;95510.97;;;5.81;85.43
47763;BME280;33526;42.690;23.322;2023-03-01T07:11:13;95504.00;;;5.93;84.84
47763;BME280;33526;42.690;23.322;2023-03-01T07:13:39;95535.31;;;5.93;84.12
47763;BME280;33526;42.690;23.322;2023-03-01T07:16:05;95480.16;;;5.35;85.26
47763;BME280;33526;42.690;23.322;2023-03-01T07:18:30;95460.66;;;5.19;85.49
47763;BME280;33526;42.690;23.322;2023-03-01T07:20:56;95533.44;;;5.67;85.97
47763;BME280;33526;42.690;23.322;2023-03-01T07:23:21;95449.44;;;5.26;85.92
47763;BME280;33526;42.690;23.322;2023-03-01T07:25:54;95553.38;;;6.05;84.82
47763;BME280;33526;42.690;23.322;2023-03-01T07:28:20;95479.88;;;5.50;84.73
47763;BME280;33526;42.690;23.322;2023-03-01T07:30:46;95519.56;;;5.87;85.34
47763;BME280;33526;42.690;23.322;2023-03-01T07:33:11;95499.97;;;5.98;84.01
47763;BME280;33526;42.690;23.322;2023-03-01T07:35:39;95496.88;;;6.12;83.40
47763;BME280;33526;42.690;23.322;2023-03-01T07:38:04;95492.03;;;6.36;82.74
47763;BME280;33526;42.690;23.322;2023-03-01T07:40:30;95451.22;;;6.33;80.87
47763;BME280;33526;42.690;23.322;2023-03-01T07:42:56;95548.25;;;6.77;80.40
47763;BME280;33526;42.690;23.322;2023-03-01T07:45:22;95552.78;;;7.03;80.37
47763;BME280;33526;42.690;23.322;2023-03-01T07:47:50;95430.91;;;6.20;79.17
47763;BME280;33526;42.690;23.322;2023-03-01T07:50:16;95470.59;;;6.53;78.72
47763;BME280;33526;42.690;23.322;2023-03-01T07:52:41;95541.41;;;6.98;78.34
47763;BME280;33526;42.690;23.322;2023-03-01T08:42:39;95407.28;;;6.94;74.91
47763;BME280;33526;42.690;23.322;2023-03-01T08:50:45;95480.91;;;7.18;74.42
47763;BME280;33526;42.690;23.322;2023-03-01T08:57:08;95396.19;;;6.77;73.47
47763;BME280;33526;42.690;23.322;2023-03-01T08:59:52;95527.94;;;7.75;72.48
47763;BME280;33526;42.690;23.322;2023-03-01T09:02:36;95529.81;;;7.94;72.07
47763;BME280;33526;42.690;23.322;2023-03-01T09:05:15;95419.63;;;7.22;71.32
47763;BME280;33526;42.690;23.322;2023-03-01T09:08:02;95368.31;;;7.10;70.43
47763;BME280;33526;42.690;23.322;2023-03-01T09:10:45;95384.13;;;7.42;70.52
47763;BME280;33526;42.690;23.322;2023-03-01T10:22:24;95474.94;;;9.10;67.91
47763;BME280;33526;42.690;23.322;2023-03-01T14:24:30;95371.09;;;9.06;71.25
47763;BME280;33526;42.690;23.322;2023-03-01T14:30:31;95361.63;;;8.56;72.51
47763;BME280;33526;42.690;23.322;2023-03-01T14:33:38;95360.72;;;8.33;73.72
47763;BME280;33526;42.690;23.322;2023-03-01T14:52:24;95228.41;;;7.13;75.75
47763;BME280;33526;42.690;23.322;2023-03-01T14:57:37;95304.81;;;7.76;74.96
47763;BME280;33526;42.690;23.322;2023-03-01T15:00:10;95216.53;;;7.38;75.43
47763;BME280;33526;42.690;23.322;2023-03-01T15:03:17;95348.25;;;8.25;74.64
47763;BME280;33526;42.690;23.322;2023-03-01T16:17:13;95262.66;;;6.51;80.18
47763;BME280;33526;42.690;23.322;2023-03-01T16:19:42;95192.66;;;5.82;81.52
47763;BME280;33526;42.690;23.322;2023-03-01T16:22:13;95351.06;;;6.86;81.36
47763;BME280;33526;42.690;23.322;2023-03-01T16:24:39;95178.69;;;5.85;80.79
47763;BME280;33526;42.690;23.322;2023-03-01T16:27:07;95278.66;;;6.47;81.19
47763;BME280;33526;42.690;23.322;2023-03-01T16:29:35;95300.50;;;6.62;80.63
47763;BME280;33526;42.690;23.322;2023-03-01T16:32:09;95256.41;;;6.18;80.96
47763;BME280;33526;42.690;23.322;2023-03-01T16:34:41;95340.25;;;6.75;81.17
47763;BME280;33526;42.690;23.322;2023-03-01T16:37:34;95173.41;;;5.42;81.89
47763;BME280;33526;42.690;23.322;2023-03-01T16:40:23;95339.59;;;6.55;82.40
47763;BME280;33526;42.690;23.322;2023-03-01T16:42:51;95240.44;;;5.89;82.51
47763;BME280;33526;42.690;23.322;2023-03-01T16:45:32;95337.75;;;6.64;82.54
47763;BME280;33526;42.690;23.322;2023-03-01T16:48:05;95325.28;;;6.85;83.02
47763;BME280;33526;42.690;23.322;2023-03-01T16:50:40;95154.19;;;5.67;81.12
47763;BME280;33526;42.690;23.322;2023-03-01T16:53:10;95243.53;;;6.24;81.71
47763;BME280;33526;42.690;23.322;2023-03-01T16:55:54;95336.75;;;6.87;81.23
47763;BME280;33526;42.690;23.322;2023-03-01T16:58:24;95343.63;;;6.83;80.90
47763;BME280;33526;42.690;23.322;2023-03-01T17:01:04;95156.31;;;5.76;81.56
47763;BME280;33526;42.690;23.322;2023-03-01T17:03:31;95283.38;;;6.34;80.91
47763;BME280;33526;42.690;23.322;2023-03-01T17:06:13;95174.63;;;5.57;81.94
47763;BME280;33526;42.690;23.322;2023-03-01T17:08:50;95238.53;;;6.03;82.58
47763;BME280;33526;42.690;23.322;2023-03-01T17:11:32;95204.44;;;5.69;82.22
47763;BME280;33526;42.690;23.322;2023-03-01T17:14:03;95279.56;;;6.11;83.09
47763;BME280;33526;42.690;23.322;2023-03-01T17:16:29;95183.81;;;5.70;82.58
47763;BME280;33526;42.690;23.322;2023-03-01T17:18:56;95150.88;;;5.40;82.20
47763;BME280;33526;42.690;23.322;2023-03-01T17:21:28;95285.13;;;6.11;83.17
47763;BME280;33526;42.690;23.322;2023-03-01T17:23:57;95276.00;;;5.94;83.42
47763;BME280;33526;42.690;23.322;2023-03-01T17:26:22;95283.41;;;6.18;83.52
47763;BME280;33526;42.690;23.322;2023-03-01T17:28:48;95312.16;;;6.40;82.79
47763;BME280;33526;42.690;23.322;2023-03-01T17:31:17;95345.72;;;6.62;82.52
47763;BME280;33526;42.690;23.322;2023-03-01T17:34:05;95323.28;;;6.40;82.45
47763;BME280;33526;42.690;23.322;2023-03-01T17:36:33;95217.44;;;5.72;82.72
47763;BME280;33526;42.690;23.322;2023-03-01T17:39:07;95287.88;;;6.28;82.32
47763;BME280;33526;42.690;23.322;2023-03-01T17:41:54;95218.47;;;5.46;83.18
47763;BME280;33526;42.690;23.322;2023-03-01T17:44:24;95271.56;;;5.81;83.87
47763;BME280;33526;42.690;23.322;2023-03-01T17:46:52;95351.31;;;6.29;84.10
47763;BME280;33526;42.690;23.322;2023-03-01T17:49:39;95255.75;;;5.61;84.08
47763;BME280;33526;42.690;23.322;2023-03-01T17:55:01;95334.56;;;6.00;84.99
47763;BME280;33526;42.690;23.322;2023-03-01T18:00:17;95359.56;;;6.17;85.75
47763;BME280;33526;42.690;23.322;2023-03-01T18:03:07;95300.56;;;5.96;85.19
47763;BME280;33526;42.690;23.322;2023-03-01T18:06:24;95353.31;;;6.12;85.08
47763;BME280;33526;42.690;23.322;2023-03-01T18:09:28;95355.75;;;6.10;85.88
47763;BME280;33526;42.690;23.322;2023-03-01T18:16:24;95309.16;;;5.65;85.82
47763;BME280;33526;42.690;23.322;2023-03-01T18:19:12;95248.75;;;5.20;86.61
47763;BME280;33526;42.690;23.322;2023-03-01T18:22:07;95360.34;;;5.81;87.26
47763;BME280;33526;42.690;23.322;2023-03-01T18:25:02;95310.88;;;5.59;88.29
47763;BME280;33526;42.690;23.322;2023-03-01T18:27:34;95345.13;;;5.89;86.70
47763;BME280;33526;42.690;23.322;2023-03-01T18:30:22;95364.00;;;5.94;86.56
47763;BME280;33526;42.690;23.322;2023-03-01T18:53:21;95299.50;;;6.06;85.26
47763;BME280;33526;42.690;23.322;2023-03-01T18:55:46;95321.13;;;6.15;82.81
47763;BME280;33526;42.690;23.322;2023-03-01T18:58:15;95232.28;;;5.29;83.04
47763;BME280;33526;42.690;23.322;2023-03-01T19:00:41;95278.75;;;5.78;83.87
47763;BME280;33526;42.690;23.322;2023-03-01T19:03:09;95380.50;;;6.21;84.14
47763;BME280;33526;42.690;23.322;2023-03-01T19:05:35;95372.31;;;6.14;85.22
47763;BME280;33526;42.690;23.322;2023-03-01T19:11:03;95356.59;;;6.07;84.27
47763;BME280;33526;42.690;23.322;2023-03-01T19:19:15;95185.91;;;4.97;84.82
47763;BME280;33526;42.690;23.322;2023-03-01T19:22:03;95299.91;;;5.88;84.75
47763;BME280;33526;42.690;23.322;2023-03-01T19:24:51;95390.44;;;6.51;83.80
47763;BME280;33526;42.690;23.322;2023-03-01T19:33:40;95205.09;;;5.24;85.29
47763;BME280;33526;42.690;23.322;2023-03-01T19:36:09;95227.78;;;5.19;84.56
47763;BME280;33526;42.690;23.322;2023-03-01T19:38:50;95330.88;;;5.87;85.14
47763;BME280;33526;42.690;23.322;2023-03-01T19:41:49;95394.03;;;6.36;85.32
47763;BME280;33526;42.690;23.322;2023-03-01T19:44:49;95394.22;;;6.45;84.77
47763;BME280;33526;42.690;23.322;2023-03-01T19:51:32;95238.03;;;5.22;84.57
47763;BME280;33526;42.690;23.322;2023-03-01T19:54:36;95245.13;;;5.23;84.90
47763;BME280;33526;42.690;23.322;2023-03-01T20:04:02;95423.94;;;6.28;85.89
47763;BME280;33526;42.690;23.322;2023-03-01T20:07:12;95424.66;;;6.32;86.27
47763;BME280;33526;42.690;23.322;2023-03-01T20:10:06;95415.09;;;6.17;86.70
47763;BME280;33526;42.690;23.322;2023-03-01T20:12:36;95407.44;;;6.04;87.39
47763;BME280;33526;42.690;23.322;2023-03-01T20:15:50;95269.19;;;5.10;88.22
47763;BME280;33526;42.690;23.322;2023-03-01T20:23:50;95269.97;;;4.90;88.12
47763;BME280;33526;42.690;23.322;2023-03-01T20:29:08;95333.97;;;5.36;89.29
47763;BME280;33526;42.690;23.322;2023-03-01T20:32:10;95255.75;;;4.68;89.57
47763;BME280;33526;42.690;23.322;2023-03-01T20:34:48;95252.53;;;4.70;89.40
47763;BME280;33526;42.690;23.322;2023-03-01T20:37:40;95351.81;;;5.35;89.49
47763;BME280;33526;42.690;23.322;2023-03-01T20:40:16;95256.03;;;4.74;89.37
47763;BME280;33526;42.690;23.322;2023-03-01T20:43:18;95249.00;;;4.89;89.45
47763;BME280;33526;42.690;23.322;2023-03-01T20:52:41;95379.53;;;5.91;88.27
47763;BME280;33526;42.690;23.322;2023-03-01T20:55:13;95306.72;;;5.31;87.49
47763;BME280;33526;42.690;23.322;2023-03-01T20:58:13;95323.50;;;5.24;88.91
47763;BME280;33526;42.690;23.322;2023-03-01T21:00:44;95358.16;;;5.35;89.39
47763;BME280;33526;42.690;23.322;2023-03-01T21:03:12;95366.66;;;5.45;89.51
47763;BME280;33526;42.690;23.322;2023-03-01T21:05:44;95313.78;;;5.35;89.12
47763;BME280;33526;42.690;23.322;2023-03-01T21:08:10;95291.34;;;5.10;87.87
47763;BME280;33526;42.690;23.322;2023-03-01T21:10:39;95361.13;;;5.45;88.70
47763;BME280;33526;42.690;23.322;2023-03-01T21:13:08;95362.38;;;5.40;89.49
47763;BME280;33526;42.690;23.322;2023-03-01T21:15:35;95428.69;;;5.74;89.58
47763;BME280;33526;42.690;23.322;2023-03-01T21:18:01;95242.00;;;4.41;90.61
47763;BME280;33526;42.690;23.322;2023-03-01T21:20:26;95366.25;;;5.26;91.01
47763;BME280;33526;42.690;23.322;2023-03-01T21:22:51;95342.94;;;5.04;91.31
47763;BME280;33526;42.690;23.322;2023-03-01T21:25:18;95398.09;;;5.38;91.47
47763;BME280;33526;42.690;23.322;2023-03-01T21:27:44;95252.09;;;4.31;91.86
47763;BME280;33526;42.690;23.322;2023-03-01T21:30:12;95377.84;;;5.21;92.20
47763;BME280;33526;42.690;23.322;2023-03-01T21:32:37;95299.50;;;4.77;91.76
47763;BME280;33526;42.690;23.322;2023-03-01T21:35:04;95390.34;;;5.29;91.80
47763;BME280;33526;42.690;23.322;2023-03-01T21:37:30;95402.50;;;5.35;91.91
47763;BME280;33526;42.690;23.322;2023-03-01T21:39:57;95364.19;;;5.10;92.07
47763;BME280;33526;42.690;23.322;2023-03-01T21:42:22;95292.19;;;4.67;92.00
47763;BME280;33526;42.690;23.322;2023-03-01T21:44:48;95385.88;;;5.35;91.76
47763;BME280;33526;42.690;23.322;2023-03-01T21:47:14;95417.66;;;5.71;91.24
47763;BME280;33526;42.690;23.322;2023-03-01T21:49:39;95316.56;;;4.95;90.98
47763;BME280;33526;42.690;23.322;2023-03-01T21:52:06;95256.94;;;4.47;90.80
47763;BME280;33526;42.690;23.322;2023-03-01T21:54:32;95251.31;;;4.31;91.55
47763;BME280;33526;42.690;23.322;2023-03-01T21:56:57;95287.06;;;4.45;91.92
47763;BME280;33526;42.690;23.322;2023-03-01T21:59:23;95284.72;;;4.64;91.92
47763;BME280;33526;42.690;23.322;2023-03-01T22:01:50;95371.66;;;5.33;90.97
47763;BME280;33526;42.690;23.322;2023-03-01T22:04:16;95352.03;;;5.24;90.53
47763;BME280;33526;42.690;23.322;2023-03-01T22:06:47;95325.53;;;5.03;89.69
47763;BME280;33526;42.690;23.322;2023-03-01T22:09:19;95341.81;;;5.21;89.79
47763;BME280;33526;42.690;23.322;2023-03-01T22:11:50;95364.66;;;5.45;88.75
47763;BME280;33526;42.690;23.322;2023-03-01T22:14:28;95292.84;;;4.94;88.78
47763;BME280;33526;42.690;23.322;2023-03-01T22:16:54;95247.16;;;4.63;87.84
47763;BME280;33526;42.690;23.322;2023-03-01T22:19:20;95285.00;;;4.89;88.19
47763;BME280;33526;42.690;23.322;2023-03-01T22:21:48;95426.25;;;5.77;88.08
47763;BME280;33526;42.690;23.322;2023-03-01T22:24:16;95254.13;;;4.71;87.94
47763;BME280;33526;42.690;23.322;2023-03-01T22:26:45;95354.78;;;5.44;87.73
47763;BME280;33526;42.690;23.322;2023-03-01T22:29:17;95258.59;;;4.85;87.32
47763;BME280;33526;42.690;23.322;2023-03-01T22:31:43;95414.72;;;5.98;87.08
47763;BME280;33526;42.690;23.322;2023-03-01T22:34:10;95354.41;;;5.62;86.63
47763;BME280;33526;42.690;23.322;2023-03-01T22:36:36;95257.31;;;4.89;85.63
47763;BME280;33526;42.690;23.322;2023-03-01T22:39:04;95344.13;;;5.43;86.48
47763;BME280;33526;42.690;23.322;2023-03-01T22:41:39;95359.97;;;5.62;86.35
47763;BME280;33526;42.690;23.322;2023-03-01T22:44:15;95343.06;;;5.36;86.04
47763;BME280;33526;42.690;23.322;2023-03-01T22:46:43;95347.09;;;5.52;86.42
47763;BME280;33526;42.690;23.322;2023-03-01T22:49:09;95302.75;;;5.32;85.78
47763;BME280;33526;42.690;23.322;2023-03-01T22:51:41;95240.53;;;4.96;85.55
47763;BME280;33526;42.690;23.322;2023-03-01T22:54:12;95254.97;;;5.08;85.53
47763;BME280;33526;42.690;23.322;2023-03-01T22:56:40;95318.94;;;5.53;84.35
47763;BME280;33526;42.690;23.322;2023-03-01T22:59:10;95359.66;;;5.77;84.36